createdAt,value
2017-12-10T00:00:02.982Z,98903.36
2017-12-10T00:02:37.362Z,98894.15
2017-12-10T00:05:16.038Z,98883.94
2017-12-10T00:07:50.455Z,98888.59
2017-12-10T00:10:24.598Z,98877.00
2017-12-10T00:12:58.749Z,98881.61
2017-12-10T00:15:32.970Z,98882.46
2017-12-10T00:18:07.085Z,98884.22
2017-12-10T00:20:45.478Z,98892.29
2017-12-10T00:23:21.062Z,98859.33
2017-12-10T00:25:55.131Z,98874.94
2017-12-10T00:28:29.126Z,98821.69
2017-12-10T00:31:03.305Z,98894.45
2017-12-10T00:33:37.834Z,98876.77
2017-12-10T00:36:12.659Z,98868.59
2017-12-10T00:38:47.294Z,98881.66
2017-12-10T00:41:21.697Z,98882.53
2017-12-10T00:43:55.849Z,98883.18
2017-12-10T00:46:30.201Z,98873.80
2017-12-10T00:49:04.470Z,98881.80
2017-12-10T00:51:38.565Z,98881.36
2017-12-10T00:54:12.721Z,98881.87
2017-12-10T00:56:46.818Z,98865.84
2017-12-10T00:59:20.892Z,98877.84
2017-12-10T01:01:55.090Z,98892.75
2017-12-10T01:04:29.690Z,98855.73
2017-12-10T01:07:04.134Z,98886.03
2017-12-10T01:09:38.737Z,98892.00
2017-12-10T01:12:12.866Z,98898.09
2017-12-10T01:14:47.005Z,98895.19
2017-12-10T01:17:21.097Z,98880.75
2017-12-10T01:19:55.253Z,98889.66
2017-12-10T01:22:29.295Z,98890.44
2017-12-10T01:25:04.785Z,98889.89
2017-12-10T01:27:39.194Z,98888.91
2017-12-10T01:30:15.922Z,98893.45
2017-12-10T01:32:50.361Z,98888.66
2017-12-10T01:35:24.489Z,98885.39
2017-12-10T01:37:58.749Z,98887.24
2017-12-10T01:40:34.970Z,98886.64
2017-12-10T01:43:09.065Z,98884.38
2017-12-10T01:45:43.098Z,98880.44
2017-12-10T01:48:17.313Z,98879.08
2017-12-10T01:50:51.517Z,98872.64
2017-12-10T01:53:25.652Z,98872.55
2017-12-10T01:55:59.851Z,98885.27
2017-12-10T01:58:34.073Z,98882.05
2017-12-10T02:01:08.258Z,98882.25
2017-12-10T02:03:42.501Z,98879.87
2017-12-10T02:06:17.385Z,98873.39
2017-12-10T02:08:51.404Z,98880.30
2017-12-10T02:11:25.558Z,98865.97
2017-12-10T02:13:59.680Z,98866.84
2017-12-10T02:16:33.899Z,98844.60
2017-12-10T02:19:07.960Z,98858.83
2017-12-10T02:21:42.050Z,98849.48
2017-12-10T02:24:16.082Z,98848.24
2017-12-10T02:26:50.123Z,98855.39
2017-12-10T02:29:24.409Z,98820.95
2017-12-10T02:31:58.873Z,98844.11
2017-12-10T02:34:33.021Z,98841.91
2017-12-10T02:37:07.185Z,98835.87
2017-12-10T02:39:41.350Z,98839.88
2017-12-10T02:42:15.419Z,98834.19
2017-12-10T02:44:49.626Z,98822.94
2017-12-10T02:47:23.762Z,98826.84
2017-12-10T02:49:58.052Z,98819.11
2017-12-10T02:52:32.130Z,98817.73
2017-12-10T02:55:13.358Z,98810.99
2017-12-10T02:57:47.729Z,98801.23
2017-12-10T03:00:21.862Z,98799.65
2017-12-10T03:02:55.919Z,98786.23
2017-12-10T03:05:30.113Z,98787.36
2017-12-10T03:08:04.386Z,98783.87
2017-12-10T03:10:38.706Z,98768.22
2017-12-10T03:13:12.865Z,98767.44
2017-12-10T03:15:47.053Z,98759.45
2017-12-10T03:18:21.095Z,98755.90
2017-12-10T03:20:55.370Z,98771.56
2017-12-10T03:23:29.530Z,98762.66
2017-12-10T03:26:03.605Z,98769.33
2017-12-10T03:28:37.758Z,98779.21
2017-12-10T03:31:11.940Z,98782.56
2017-12-10T03:33:45.750Z,98772.33
2017-12-10T03:36:19.785Z,98772.05
2017-12-10T03:38:53.927Z,98779.45
2017-12-10T03:41:27.735Z,98726.28
2017-12-10T03:44:01.758Z,98767.18
2017-12-10T03:46:35.945Z,98767.70
2017-12-10T03:49:10.078Z,98768.52
2017-12-10T03:51:44.234Z,98769.47
2017-12-10T03:54:18.389Z,98765.19
2017-12-10T03:56:52.490Z,98762.31
2017-12-10T03:59:26.753Z,98763.16
2017-12-10T04:02:00.945Z,98751.70
2017-12-10T04:04:35.130Z,98752.34
2017-12-10T04:07:09.557Z,98721.30
2017-12-10T04:09:43.750Z,98739.23
2017-12-10T04:12:18.167Z,98734.30
2017-12-10T04:14:52.256Z,98736.61
2017-12-10T04:17:26.345Z,98740.33
2017-12-10T04:20:00.496Z,98741.13
2017-12-10T04:22:34.898Z,98742.34
2017-12-10T04:25:14.917Z,98747.06
2017-12-10T04:27:49.082Z,98745.31
2017-12-10T04:30:23.133Z,98735.77
2017-12-10T04:32:57.169Z,98744.11
2017-12-10T04:35:31.303Z,98731.42
2017-12-10T04:38:05.422Z,98744.98
2017-12-10T04:40:39.498Z,98744.02
2017-12-10T04:43:13.546Z,98738.52
2017-12-10T04:45:47.622Z,98743.95
2017-12-10T04:48:21.727Z,98746.09
2017-12-10T04:50:55.825Z,98747.29
2017-12-10T04:53:29.958Z,98737.67
2017-12-10T04:56:04.061Z,98747.59
2017-12-10T04:58:38.182Z,98746.89
2017-12-10T05:01:12.227Z,98746.27
2017-12-10T05:03:46.449Z,98744.13
2017-12-10T05:06:20.450Z,98737.66
2017-12-10T05:08:54.564Z,98740.53
2017-12-10T05:11:28.670Z,98744.84
2017-12-10T05:14:02.974Z,98743.27
2017-12-10T05:16:37.158Z,98739.96
2017-12-10T05:19:11.198Z,98741.66
2017-12-10T05:21:45.326Z,98731.41
2017-12-10T05:24:19.682Z,98731.30
2017-12-10T05:26:54.057Z,98719.20
2017-12-10T05:29:28.200Z,98726.75
2017-12-10T05:32:02.267Z,98726.42
2017-12-10T05:34:36.410Z,98722.28
2017-12-10T05:37:10.511Z,98720.19
2017-12-10T05:39:44.777Z,98715.72
2017-12-10T05:42:19.161Z,98720.89
2017-12-10T05:44:53.426Z,98714.38
2017-12-10T05:47:27.575Z,98717.73
2017-12-10T05:50:02.161Z,98719.30
2017-12-10T05:52:36.642Z,98703.84
2017-12-10T05:55:10.702Z,98704.77
2017-12-10T05:57:44.875Z,98707.53
2017-12-10T06:00:18.941Z,98705.23
2017-12-10T06:02:53.097Z,98708.87
2017-12-10T06:05:27.514Z,98709.52
2017-12-10T06:08:01.738Z,98706.05
2017-12-10T06:10:36.215Z,98708.05
2017-12-10T06:13:10.382Z,98696.86
2017-12-10T06:15:44.470Z,98701.09
2017-12-10T06:18:18.882Z,98694.02
2017-12-10T06:20:53.237Z,98696.96
2017-12-10T06:23:27.675Z,98694.25
2017-12-10T06:26:01.870Z,98685.59
2017-12-10T06:28:36.205Z,98685.59
2017-12-10T06:31:10.230Z,98679.47
2017-12-10T06:33:44.386Z,98678.59
2017-12-10T06:36:18.482Z,98674.87
2017-12-10T06:41:26.078Z,98670.55
2017-12-10T06:44:00.494Z,98663.47
2017-12-10T06:46:34.637Z,98670.03
2017-12-10T06:49:08.806Z,98660.59
2017-12-10T06:51:42.935Z,98656.06
2017-12-10T06:54:17.346Z,98653.86
2017-12-10T06:56:51.430Z,98653.70
2017-12-10T06:59:25.461Z,98654.88
2017-12-10T07:01:59.554Z,98655.05
2017-12-10T07:04:33.729Z,98650.68
2017-12-10T07:07:07.869Z,98653.93
2017-12-10T07:09:42.086Z,98649.20
2017-12-10T07:12:16.157Z,98644.46
2017-12-10T07:14:50.310Z,98632.97
2017-12-10T07:17:24.358Z,98627.64
2017-12-10T07:19:58.937Z,98623.45
2017-12-10T07:22:33.106Z,98618.62
2017-12-10T07:25:26.025Z,98611.73
2017-12-10T07:28:00.213Z,98600.52
2017-12-10T07:30:34.690Z,98607.15
2017-12-10T07:33:08.946Z,98621.92
2017-12-10T07:35:42.967Z,98592.48
2017-12-10T07:38:17.206Z,98582.39
2017-12-10T07:40:51.281Z,98582.11
2017-12-10T07:43:25.790Z,98576.44
2017-12-10T07:45:59.860Z,98570.60
2017-12-10T07:48:34.326Z,98564.83
2017-12-10T07:51:08.415Z,98569.17
2017-12-10T07:53:42.635Z,98562.33
2017-12-10T07:56:16.726Z,98562.02
2017-12-10T07:58:51.093Z,98551.48
2017-12-10T08:01:25.442Z,98549.35
2017-12-10T08:03:59.786Z,98544.13
2017-12-10T08:06:34.154Z,98535.42
2017-12-10T08:09:09.005Z,98525.36
2017-12-10T08:11:43.439Z,98520.91
2017-12-10T08:14:17.637Z,98510.74
2017-12-10T08:16:52.875Z,98503.73
2017-12-10T08:19:27.702Z,98503.03
2017-12-10T08:22:01.974Z,98501.61
2017-12-10T08:24:36.094Z,98496.46
2017-12-10T08:27:10.330Z,98503.23
2017-12-10T08:29:44.373Z,98500.53
2017-12-10T08:32:18.733Z,98488.02
2017-12-10T08:34:52.948Z,98483.49
2017-12-10T08:37:27.346Z,98474.29
2017-12-10T08:40:01.653Z,98476.48
2017-12-10T08:42:35.753Z,98469.61
2017-12-10T08:45:13.165Z,98317.63
2017-12-10T08:47:47.654Z,98438.37
2017-12-10T08:50:21.763Z,98428.42
2017-12-10T08:52:55.783Z,98410.41
2017-12-10T08:55:30.132Z,98395.79
2017-12-10T08:58:04.159Z,98368.88
2017-12-10T09:00:38.228Z,98370.75
2017-12-10T09:03:12.670Z,98359.38
2017-12-10T09:05:47.071Z,98350.88
2017-12-10T09:08:21.406Z,98343.54
2017-12-10T09:10:55.997Z,98320.30
2017-12-10T09:13:30.094Z,98310.08
2017-12-10T09:16:04.172Z,98285.47
2017-12-10T09:18:38.212Z,98286.94
2017-12-10T09:21:12.323Z,98264.94
2017-12-10T09:23:46.379Z,98259.07
2017-12-10T09:26:20.586Z,98253.27
2017-12-10T09:28:54.938Z,98235.60
2017-12-10T09:31:29.333Z,98226.59
2017-12-10T09:34:03.610Z,98212.59
2017-12-10T09:36:37.722Z,98208.81
2017-12-10T09:39:11.922Z,98191.58
2017-12-10T09:41:46.116Z,98185.77
2017-12-10T09:44:20.262Z,98178.11
2017-12-10T09:46:54.282Z,98170.31
2017-12-10T09:49:28.417Z,98160.86
2017-12-10T09:52:02.490Z,98140.17
2017-12-10T09:54:36.542Z,98133.30
2017-12-10T09:57:10.588Z,98118.66
2017-12-10T09:59:44.995Z,98108.86
2017-12-10T10:02:19.032Z,98097.83
2017-12-10T10:04:53.269Z,98084.02
2017-12-10T10:07:27.314Z,98079.13
2017-12-10T10:10:01.611Z,98067.36
2017-12-10T10:12:35.815Z,98055.50
2017-12-10T10:15:15.464Z,98044.70
2017-12-10T10:17:49.621Z,98024.20
2017-12-10T10:20:23.695Z,98024.60
2017-12-10T10:22:58.285Z,98018.20
2017-12-10T10:25:32.615Z,98008.06
2017-12-10T10:28:06.829Z,98004.58
2017-12-10T10:30:40.915Z,97993.80
2017-12-10T10:33:16.266Z,97992.38
2017-12-10T10:35:50.852Z,97971.91
2017-12-10T10:38:24.863Z,97952.75
2017-12-10T10:40:58.946Z,97937.09
2017-12-10T10:43:32.966Z,97930.25
2017-12-10T10:46:07.098Z,97921.29
2017-12-10T10:48:41.339Z,97921.60
2017-12-10T10:51:15.501Z,97912.37
2017-12-10T10:53:49.609Z,97900.25
2017-12-10T10:56:24.027Z,97884.61
2017-12-10T10:58:58.642Z,97886.11
2017-12-10T11:01:32.950Z,97872.74
2017-12-10T11:04:07.393Z,97849.67
2017-12-10T11:06:41.570Z,97840.80
2017-12-10T11:09:16.342Z,97822.08
2017-12-10T11:11:50.458Z,97816.34
2017-12-10T11:14:25.466Z,97802.36
2017-12-10T11:16:59.683Z,97782.91
2017-12-10T11:19:33.875Z,97767.14
2017-12-10T11:22:08.291Z,97756.34
2017-12-10T11:24:42.413Z,97734.28
2017-12-10T11:27:16.427Z,97730.56
2017-12-10T11:29:50.673Z,97719.31
2017-12-10T11:32:24.743Z,97699.86
2017-12-10T11:34:59.209Z,97680.61
2017-12-10T11:37:33.285Z,97672.66
2017-12-10T11:40:13.838Z,97678.81
2017-12-10T11:42:48.049Z,97679.14
2017-12-10T11:45:22.207Z,97672.81
2017-12-10T11:47:56.430Z,97664.80
2017-12-10T11:50:30.826Z,97654.60
2017-12-10T11:53:05.025Z,97644.60
2017-12-10T11:55:39.143Z,97624.42
2017-12-10T11:58:13.178Z,97609.60
2017-12-10T12:00:47.626Z,97600.56
2017-12-10T12:03:21.809Z,97595.73
2017-12-10T12:05:56.029Z,97587.91
2017-12-10T12:08:30.091Z,97584.20
2017-12-10T12:11:04.112Z,97536.70
2017-12-10T12:13:38.322Z,97551.94
2017-12-10T12:16:12.440Z,97536.69
2017-12-10T12:18:47.381Z,97516.02
2017-12-10T12:21:21.416Z,97496.76
2017-12-10T12:23:55.917Z,97482.17
2017-12-10T12:26:30.310Z,97469.06
2017-12-10T12:29:04.582Z,97446.43
2017-12-10T12:31:38.758Z,97453.49
2017-12-10T12:34:12.955Z,97456.11
2017-12-10T12:36:47.117Z,97459.77
2017-12-10T12:39:21.718Z,97442.52
2017-12-10T12:41:56.062Z,97437.37
2017-12-10T12:44:30.353Z,97441.47
2017-12-10T12:47:04.761Z,97427.43
2017-12-10T12:49:39.270Z,97412.23
2017-12-10T12:52:13.378Z,97401.70
2017-12-10T12:54:47.546Z,97388.53
2017-12-10T12:57:21.596Z,97372.34
2017-12-10T12:59:55.750Z,97345.86
2017-12-10T13:02:30.278Z,97340.70
2017-12-10T13:05:13.330Z,97337.09
2017-12-10T13:07:47.390Z,97336.36
2017-12-10T13:10:21.420Z,97326.34
2017-12-10T13:12:55.657Z,97303.54
2017-12-10T13:15:29.774Z,97275.92
2017-12-10T13:18:03.619Z,97267.02
2017-12-10T13:20:37.753Z,97252.61
2017-12-10T13:23:11.821Z,97240.79
2017-12-10T13:25:45.922Z,97221.59
2017-12-10T13:28:19.878Z,97200.59
2017-12-10T13:30:54.701Z,97159.05
2017-12-10T13:33:28.830Z,97196.61
2017-12-10T13:36:03.257Z,97194.01
2017-12-10T13:38:37.467Z,97104.03
2017-12-10T13:41:11.376Z,97166.13
2017-12-10T13:43:45.860Z,97157.01
2017-12-10T13:46:19.910Z,97151.44
2017-12-10T13:48:54.069Z,97142.28
2017-12-10T13:51:28.882Z,97145.83
2017-12-10T13:54:02.967Z,97143.61
2017-12-10T13:56:37.386Z,97138.96
2017-12-10T13:59:11.896Z,97143.41
2017-12-10T14:01:46.947Z,97141.48
2017-12-10T14:04:21.232Z,97133.89
2017-12-10T14:06:55.430Z,97123.57
2017-12-10T14:09:29.793Z,97132.09
2017-12-10T14:12:04.634Z,97125.13
2017-12-10T14:14:38.807Z,97123.44
2017-12-10T14:17:12.854Z,97115.61
2017-12-10T14:19:47.354Z,97105.45
2017-12-10T14:22:21.259Z,97095.11
2017-12-10T14:24:55.561Z,97089.27
2017-12-10T14:27:29.581Z,97091.33
2017-12-10T14:32:44.082Z,97078.62
2017-12-10T14:35:18.517Z,97063.58
2017-12-10T14:37:52.642Z,97020.37
2017-12-10T14:40:26.839Z,97033.38
2017-12-10T14:43:02.014Z,97023.06
2017-12-10T14:45:36.288Z,97017.66
2017-12-10T14:48:10.937Z,97013.02
2017-12-10T14:50:44.974Z,97003.07
2017-12-10T14:53:19.455Z,97004.86
2017-12-10T14:55:53.890Z,96991.37
2017-12-10T14:58:28.082Z,96991.37
2017-12-10T15:01:02.378Z,96993.73
2017-12-10T15:03:36.337Z,96990.98
2017-12-10T15:06:10.931Z,96983.16
2017-12-10T15:08:45.430Z,96986.41
2017-12-10T15:11:19.467Z,96981.63
2017-12-10T15:13:53.655Z,96985.77
2017-12-10T15:16:27.693Z,96977.64
2017-12-10T15:19:02.662Z,96974.52
2017-12-10T15:21:36.777Z,96971.48
2017-12-10T15:24:10.902Z,96972.52
2017-12-10T15:26:45.027Z,96968.05
2017-12-10T15:29:19.517Z,96976.70
2017-12-10T15:31:53.887Z,96976.39
2017-12-10T15:34:28.357Z,96984.48
2017-12-10T15:37:02.503Z,96976.17
2017-12-10T15:39:37.070Z,96976.29
2017-12-10T15:42:11.201Z,96969.70
2017-12-10T15:44:45.321Z,96963.08
2017-12-10T15:47:19.410Z,96954.45
2017-12-10T15:49:53.885Z,96939.69
2017-12-10T15:52:28.047Z,96928.59
2017-12-10T15:55:02.409Z,96921.69
2017-12-10T15:57:41.120Z,96917.92
2017-12-10T16:00:15.163Z,96934.78
2017-12-10T16:02:49.644Z,96938.84
2017-12-10T16:05:23.702Z,96951.24
2017-12-10T16:07:57.822Z,96947.58
2017-12-10T16:10:31.894Z,96951.55
2017-12-10T16:13:06.106Z,96949.59
2017-12-10T16:15:40.178Z,96962.13
2017-12-10T16:18:14.394Z,96972.61
2017-12-10T16:20:48.676Z,96971.94
2017-12-10T16:23:22.951Z,96974.11
2017-12-10T16:25:57.357Z,96976.81
2017-12-10T16:28:31.528Z,96977.11
2017-12-10T16:31:05.582Z,96982.63
2017-12-10T16:33:39.825Z,96985.17
2017-12-10T16:36:14.270Z,96988.39
2017-12-10T16:38:48.421Z,96984.88
2017-12-10T16:41:22.430Z,96988.75
2017-12-10T16:43:56.868Z,96989.18
2017-12-10T16:46:30.952Z,96990.46
2017-12-10T16:49:05.109Z,96987.08
2017-12-10T16:51:39.220Z,97000.95
2017-12-10T16:54:13.539Z,97011.75
2017-12-10T16:56:47.870Z,97002.98
2017-12-10T16:59:22.356Z,97002.77
2017-12-10T17:01:56.746Z,97002.91
2017-12-10T17:04:30.661Z,97011.47
2017-12-10T17:07:04.655Z,97025.63
2017-12-10T17:09:38.890Z,97039.02
2017-12-10T17:12:13.314Z,97024.56
2017-12-10T17:14:47.515Z,97008.34
2017-12-10T17:17:21.652Z,96990.14
2017-12-10T17:19:55.890Z,97007.56
2017-12-10T17:22:29.937Z,97007.95
2017-12-10T17:27:44.016Z,97008.11
2017-12-10T17:30:18.394Z,97001.80
2017-12-10T17:32:52.483Z,97012.34
2017-12-10T17:35:26.639Z,97005.21
2017-12-10T17:38:00.755Z,96998.09
2017-12-10T17:40:34.943Z,97002.88
2017-12-10T17:43:09.502Z,97003.13
2017-12-10T17:45:44.848Z,97009.48
2017-12-10T17:48:19.803Z,97017.94
2017-12-10T17:50:53.919Z,97027.97
2017-12-10T17:53:28.403Z,97023.91
2017-12-10T17:56:02.258Z,97019.04
2017-12-10T17:58:36.450Z,96916.36
2017-12-10T18:01:10.479Z,97003.97
2017-12-10T18:03:44.661Z,96996.87
2017-12-10T18:06:19.049Z,96988.06
2017-12-10T18:08:53.372Z,97000.38
2017-12-10T18:11:27.550Z,97022.13
2017-12-10T18:14:01.656Z,97008.25
2017-12-10T18:16:35.654Z,97000.77
2017-12-10T18:19:09.698Z,97012.19
2017-12-10T18:21:43.836Z,97009.19
2017-12-10T18:24:18.105Z,97009.88
2017-12-10T18:26:52.510Z,97016.13
2017-12-10T18:29:26.710Z,97012.20
2017-12-10T18:32:01.076Z,97012.06
2017-12-10T18:34:35.206Z,97000.13
2017-12-10T18:37:09.382Z,97006.94
2017-12-10T18:39:43.721Z,97005.30
2017-12-10T18:42:17.776Z,97014.72
2017-12-10T18:44:51.793Z,96998.98
2017-12-10T18:47:26.230Z,97009.19
2017-12-10T18:50:00.421Z,96990.86
2017-12-10T18:52:34.530Z,97004.40
2017-12-10T18:55:11.963Z,97004.34
2017-12-10T18:57:46.082Z,96991.59
2017-12-10T19:00:20.247Z,97003.45
2017-12-10T19:02:54.638Z,97011.05
2017-12-10T19:05:29.074Z,97015.61
2017-12-10T19:08:03.102Z,97031.08
2017-12-10T19:10:37.222Z,97010.05
2017-12-10T19:13:11.784Z,97014.76
2017-12-10T19:15:46.085Z,97017.74
2017-12-10T19:18:20.251Z,97020.16
2017-12-10T19:20:54.370Z,97000.20
2017-12-10T19:23:28.866Z,97043.02
2017-12-10T19:26:03.015Z,97002.82
2017-12-10T19:28:37.153Z,97014.13
2017-12-10T19:31:11.199Z,97024.43
2017-12-10T19:33:45.619Z,97007.17
2017-12-10T19:36:20.007Z,97018.97
2017-12-10T19:38:54.074Z,97018.62
2017-12-10T19:41:28.219Z,97028.91
2017-12-10T19:44:02.341Z,97038.03
2017-12-10T19:46:36.590Z,97026.86
2017-12-10T19:49:10.737Z,97029.05
2017-12-10T19:51:44.817Z,97028.00
2017-12-10T19:54:18.906Z,97014.84
2017-12-10T19:56:52.974Z,97019.03
2017-12-10T19:59:27.358Z,97033.48
2017-12-10T20:02:01.494Z,97036.20
2017-12-10T20:04:35.508Z,97039.90
2017-12-10T20:07:09.530Z,97018.66
2017-12-10T20:09:43.741Z,97028.02
2017-12-10T20:12:17.915Z,97027.08
2017-12-10T20:14:51.938Z,97049.48
2017-12-10T20:17:25.950Z,97060.72
2017-12-10T20:20:00.513Z,97053.45
2017-12-10T20:22:34.559Z,97064.42
2017-12-10T20:25:10.575Z,97084.89
2017-12-10T20:27:44.776Z,97094.97
2017-12-10T20:30:19.038Z,97087.67
2017-12-10T20:32:53.582Z,97086.05
2017-12-10T20:35:27.606Z,97097.31
2017-12-10T20:38:01.853Z,97104.96
2017-12-10T20:40:35.922Z,97115.52
2017-12-10T20:43:10.117Z,97111.39
2017-12-10T20:45:44.654Z,97112.77
2017-12-10T20:48:18.670Z,97136.75
2017-12-10T20:50:52.790Z,97123.98
2017-12-10T20:53:27.044Z,97118.76
2017-12-10T20:56:01.094Z,97119.49
2017-12-10T20:58:35.234Z,97119.55
2017-12-10T21:01:09.701Z,97110.43
2017-12-10T21:03:43.853Z,97118.98
2017-12-10T21:06:17.962Z,97113.89
2017-12-10T21:08:52.538Z,97117.22
2017-12-10T21:11:26.894Z,97122.09
2017-12-10T21:14:01.082Z,97118.51
2017-12-10T21:16:35.210Z,97117.37
2017-12-10T21:19:09.438Z,97124.62
2017-12-10T21:21:43.486Z,97121.69
2017-12-10T21:24:18.102Z,97115.23
2017-12-10T21:26:52.138Z,97132.16
2017-12-10T21:29:26.290Z,97151.39
2017-12-10T21:32:00.345Z,97135.94
2017-12-10T21:34:34.457Z,97148.23
2017-12-10T21:37:08.486Z,97153.47
2017-12-10T21:39:42.758Z,97147.90
2017-12-10T21:42:17.152Z,97159.94
2017-12-10T21:44:51.222Z,97176.97
2017-12-10T21:47:25.252Z,97169.86
2017-12-10T21:49:59.286Z,97177.95
2017-12-10T21:52:33.693Z,97180.82
2017-12-10T21:55:14.857Z,97200.55
2017-12-10T21:57:49.090Z,97197.95
2017-12-10T22:00:23.167Z,97183.14
2017-12-10T22:02:57.298Z,97175.61
2017-12-10T22:05:31.726Z,97173.33
2017-12-10T22:08:06.153Z,97188.41
2017-12-10T22:10:40.622Z,97098.12
2017-12-10T22:13:15.143Z,97161.66
2017-12-10T22:15:49.197Z,97171.50
2017-12-10T22:18:23.455Z,97179.80
2017-12-10T22:20:57.558Z,97173.44
2017-12-10T22:23:31.734Z,97152.76
2017-12-10T22:26:05.778Z,97149.95
2017-12-10T22:28:39.833Z,97144.34
2017-12-10T22:31:14.235Z,97152.73
2017-12-10T22:33:48.394Z,97139.50
2017-12-10T22:36:22.414Z,97163.88
2017-12-10T22:38:56.545Z,97165.44
2017-12-10T22:41:30.625Z,97161.89
2017-12-10T22:44:05.010Z,97162.81
2017-12-10T22:46:39.458Z,97171.69
2017-12-10T22:49:13.997Z,97178.14
2017-12-10T22:51:48.414Z,97178.95
2017-12-10T22:54:23.054Z,97177.34
2017-12-10T22:56:57.536Z,97172.20
2017-12-10T22:59:31.939Z,97171.95
2017-12-10T23:02:06.330Z,97164.13
2017-12-10T23:04:41.403Z,97161.75
2017-12-10T23:07:15.954Z,97152.00
2017-12-10T23:09:50.449Z,97141.89
2017-12-10T23:12:24.902Z,97130.41
2017-12-10T23:15:10.641Z,97130.28
2017-12-10T23:17:45.197Z,97126.85
2017-12-10T23:20:26.588Z,97108.13
2017-12-10T23:23:00.970Z,97110.59
2017-12-10T23:25:35.362Z,97090.97
2017-12-10T23:28:09.549Z,97082.37
2017-12-10T23:30:43.582Z,97097.61
2017-12-10T23:33:17.775Z,97093.16
2017-12-10T23:35:51.921Z,97100.78
2017-12-10T23:38:27.014Z,97106.28
2017-12-10T23:41:01.486Z,97106.20
2017-12-10T23:43:36.225Z,97108.16
2017-12-10T23:46:10.314Z,97100.23
2017-12-10T23:48:44.725Z,97098.63
2017-12-10T23:51:19.134Z,97084.47
2017-12-10T23:53:53.658Z,97096.16
2017-12-10T23:56:28.066Z,97092.53
2017-12-10T23:59:02.401Z,97093.28
